Ana Sayfa
METAR-TAF:

METAR-TAF

Havaalanları :

Greenville, Maine, Amerika Birleşik Devletleri

Enlem: 45-28N, Boylam: 069-35W, yükseklik: 427 m

Güncel hava durumu gözlemi

Rapor saat 01:56 UTC de 39 dakika önce yapıldı.
Rüzgar kuzey/kuzeybatıdan 9 kt
Sıcaklık -1°C
Nem 69%
Basınç 1006 hPa

METAR: KGNR 190156Z AUTO 33009KT M01/M06 A2970 RMK AO1 SLP079 T10111061

Saat: 21:35 (02:35 UTC)


TAF: eksik

4.000'den fazla havaalanı için hava durumu gözlemleri ve tahminleri (METAR ve TAF raporları).

Kullanılabilir istasyonlar harita üzerinde sarı ve kırmızı noktalarla gösterilir.

İstasyonun adını görmek için fareyi noktanın üzerinde gezdirin.

Sonrasında hava gözlem ve tahminlerini görmek için tıklayın.

Haritayı değiştirmek için: yaklaştırmak için siyah artı işaretli yeşil düğmeye ve uzaklaştırmak için de eksi işaretli düğmeye hızla tıklayın; bitişik haritalar için yeşil okları kullanın.


METAR-TAF: